createdAt,value
2023-04-02T12:54:17.588Z,61.31
2023-04-02T12:57:29.253Z,57.72
2023-04-02T13:00:20.957Z,50.88
2023-04-02T13:03:06.434Z,55.58
2023-04-02T13:05:56.831Z,51.79
2023-04-02T13:08:42.547Z,54.84
2023-04-02T13:11:38.844Z,52.82
2023-04-02T13:14:24.916Z,51.27
2023-04-02T13:17:39.792Z,54.55
2023-04-02T13:20:30.390Z,56.15
2023-04-02T13:23:37.285Z,57.71
2023-04-02T13:26:27.644Z,54.05
2023-04-02T13:29:18.841Z,49.52
2023-04-02T13:32:11.695Z,50.41
2023-04-02T13:34:57.188Z,51.96
2023-04-02T13:37:42.973Z,51.83
2023-04-02T13:40:28.940Z,54.53
2023-04-02T13:43:19.547Z,54.59
2023-04-02T13:46:06.951Z,48.63
2023-04-02T13:48:54.483Z,47.04
2023-04-02T13:51:46.414Z,48.09
2023-04-02T13:54:48.761Z,46.49
2023-04-02T13:57:34.497Z,47.21
2023-04-02T14:00:20.542Z,49.47
2023-04-02T14:03:11.786Z,56.13
2023-04-02T14:06:11.293Z,62.34
2023-04-02T14:09:30.364Z,64.01
2023-04-02T14:12:28.463Z,58.44
2023-04-02T14:15:51.064Z,59.52
2023-04-02T14:18:49.301Z,59.70
2023-04-02T14:22:02.118Z,58.37
2023-04-02T14:25:11.537Z,60.53
2023-04-02T14:28:27.077Z,57.75
2023-04-02T14:31:34.115Z,54.84
2023-04-02T14:34:50.631Z,52.89
2023-04-02T14:37:51.384Z,58.53
2023-04-02T14:40:39.872Z,64.22
2023-04-02T14:43:32.451Z,62.69
2023-04-02T14:46:18.112Z,59.16
2023-04-02T14:49:13.047Z,57.29
2023-04-02T14:52:15.896Z,55.94
2023-04-02T14:55:11.748Z,56.27
2023-04-02T14:58:01.433Z,51.92
2023-04-02T15:01:13.854Z,52.72
2023-04-02T15:04:04.631Z,51.27
2023-04-02T15:06:55.493Z,51.21
2023-04-02T15:09:49.042Z,58.38
2023-04-02T15:12:37.671Z,62.30
2023-04-02T15:15:48.613Z,61.31
2023-04-02T15:18:34.031Z,62.72
2023-04-02T15:21:19.606Z,60.47
2023-04-02T15:24:22.732Z,59.29
2023-04-02T15:27:25.518Z,53.58
2023-04-02T15:30:15.936Z,54.48
2023-04-02T15:33:28.429Z,55.90
2023-04-02T15:36:29.398Z,58.33
2023-04-02T15:39:31.491Z,58.08
2023-04-02T15:42:28.886Z,60.89
2023-04-02T15:45:29.056Z,62.70
2023-04-02T15:48:28.045Z,65.35
2023-04-02T15:51:33.846Z,64.85
2023-04-02T15:54:36.156Z,64.77
2023-04-02T15:58:08.328Z,63.91
2023-04-02T16:01:23.611Z,62.79
2023-04-02T16:04:30.393Z,62.95
2023-04-02T16:07:51.733Z,64.26
2023-04-02T16:10:42.357Z,65.32
2023-04-02T16:13:33.633Z,63.49
2023-04-02T16:16:29.355Z,67.70
2023-04-02T16:19:35.661Z,64.25
2023-04-02T16:22:28.917Z,62.85
2023-04-02T16:25:19.304Z,66.53
2023-04-02T16:28:31.839Z,65.01
2023-04-02T16:31:28.169Z,67.89
2023-04-02T16:34:34.749Z,69.58
2023-04-02T16:37:31.085Z,67.08
2023-04-02T16:41:00.597Z,68.67
2023-04-02T16:44:10.015Z,72.01
2023-04-02T16:47:04.376Z,71.15
2023-04-02T16:50:11.404Z,66.81
2023-04-02T16:53:30.435Z,67.39
2023-04-02T16:56:50.793Z,68.28
2023-04-02T17:00:01.304Z,70.96
2023-04-02T17:03:08.329Z,69.51
2023-04-02T17:06:29.812Z,71.24
2023-04-02T17:09:27.611Z,74.65
2023-04-02T17:12:21.277Z,75.97
2023-04-02T17:15:27.639Z,77.30
2023-04-02T17:18:21.646Z,77.07
2023-04-02T17:21:10.348Z,74.48
2023-04-02T17:24:00.318Z,72.68
2023-04-02T17:26:49.971Z,72.63
2023-04-02T17:29:39.255Z,70.86
2023-04-02T17:32:31.407Z,72.72
2023-04-02T17:35:34.091Z,74.44
2023-04-02T17:38:40.916Z,79.43
2023-04-02T17:41:33.886Z,77.74
2023-04-02T17:44:52.600Z,77.92
2023-04-02T17:47:49.607Z,80.86
2023-04-02T17:50:56.058Z,77.80
2023-04-02T17:54:01.498Z,80.70
2023-04-02T17:56:59.497Z,78.82
2023-04-02T18:00:22.702Z,81.84
2023-04-02T18:03:18.649Z,83.34
2023-04-02T18:06:14.135Z,83.95
2023-04-02T18:09:20.352Z,83.57
2023-04-02T18:12:45.372Z,82.93
2023-04-02T18:15:50.020Z,85.24
2023-04-02T18:19:05.801Z,81.26
2023-04-02T18:22:06.400Z,81.46
2023-04-02T18:25:13.242Z,83.65
2023-04-02T18:28:38.394Z,81.79
2023-04-02T18:31:46.417Z,81.74
2023-04-02T18:34:47.446Z,82.96
2023-04-02T18:37:49.824Z,84.47
2023-04-02T18:41:07.373Z,81.75
2023-04-02T18:44:22.519Z,82.70
2023-04-02T18:47:25.013Z,85.11
2023-04-02T18:50:27.841Z,85.33
2023-04-02T18:53:24.210Z,85.54
2023-04-02T18:56:18.265Z,89.57
2023-04-02T18:59:36.613Z,86.44
2023-04-02T19:02:35.417Z,90.17
2023-04-02T19:05:30.643Z,89.94
2023-04-02T19:08:21.596Z,86.60
2023-04-02T19:11:15.348Z,88.07
2023-04-02T19:14:02.447Z,87.76
2023-04-02T19:17:02.593Z,89.61
2023-04-02T19:20:25.799Z,87.38
2023-04-02T19:23:33.005Z,88.55
2023-04-02T19:26:23.934Z,87.32
2023-04-02T19:29:32.779Z,88.67
2023-04-02T19:33:03.102Z,87.45
2023-04-02T19:35:56.196Z,88.27
2023-04-02T19:39:16.968Z,89.98
2023-04-02T19:42:58.429Z,89.83
2023-04-02T19:45:47.807Z,89.02
2023-04-02T19:48:46.837Z,89.80
2023-04-02T19:51:33.549Z,92.87
2023-04-02T19:54:19.038Z,90.11
2023-04-02T19:57:05.326Z,91.28
2023-04-02T19:59:50.870Z,91.60
2023-04-02T20:02:36.525Z,90.81
2023-04-02T20:05:21.959Z,92.50
2023-04-02T20:08:07.435Z,92.33
2023-04-02T20:10:53.159Z,91.69
2023-04-02T20:13:38.800Z,91.52
2023-04-02T20:16:24.649Z,90.03
2023-04-02T20:19:09.997Z,92.08
2023-04-02T20:21:56.315Z,90.50
2023-04-02T20:24:42.715Z,91.17
2023-04-02T20:27:28.464Z,87.23
2023-04-02T20:30:14.310Z,89.11
2023-04-02T20:33:00.147Z,88.31
2023-04-02T20:35:46.078Z,88.52
2023-04-02T20:38:32.139Z,89.08
2023-04-02T20:41:18.210Z,89.26
2023-04-02T20:44:03.657Z,89.19
2023-04-02T20:46:49.033Z,89.00
2023-04-02T20:49:34.978Z,88.39
2023-04-02T20:52:21.900Z,88.25
2023-04-02T20:55:08.476Z,87.85
2023-04-02T20:57:54.162Z,89.78
2023-04-02T21:00:39.841Z,88.24
2023-04-02T21:03:25.457Z,88.54
2023-04-02T21:06:15.350Z,88.38
2023-04-02T21:09:04.838Z,88.08
2023-04-02T21:11:51.042Z,89.45
2023-04-02T21:14:38.969Z,88.84
2023-04-02T21:17:24.498Z,89.37
2023-04-02T21:20:11.394Z,91.21
2023-04-02T21:22:57.658Z,88.87
2023-04-02T21:25:43.391Z,90.15
2023-04-02T21:28:28.682Z,90.87
2023-04-02T21:31:19.806Z,92.67
2023-04-02T21:34:07.453Z,93.80
2023-04-02T21:36:53.215Z,94.70
2023-04-02T21:39:38.875Z,94.79
2023-04-02T21:42:24.375Z,95.71
2023-04-02T21:45:10.555Z,96.11
2023-04-02T21:47:56.007Z,97.19
2023-04-02T21:50:41.765Z,94.79
2023-04-02T21:53:27.113Z,95.33
2023-04-02T21:56:15.446Z,98.10
2023-04-02T21:59:02.194Z,99.93
2023-04-02T22:01:50.284Z,100.00
2023-04-02T22:04:35.989Z,100.00
2023-04-02T22:07:21.551Z,100.00
2023-04-02T22:10:07.109Z,100.00
2023-04-02T22:12:52.741Z,100.00
2023-04-02T22:15:38.094Z,100.00
2023-04-02T22:18:23.519Z,100.00
2023-04-02T22:21:10.268Z,100.00
2023-04-02T22:23:56.517Z,100.00
2023-04-02T22:26:42.462Z,100.00
2023-04-02T22:29:27.791Z,100.00
2023-04-02T22:32:13.303Z,100.00
2023-04-02T22:34:58.784Z,100.00
2023-04-02T22:37:44.378Z,100.00
2023-04-02T22:40:29.893Z,100.00
2023-04-02T22:43:15.544Z,100.00
2023-04-02T22:46:01.342Z,100.00
2023-04-02T22:48:47.740Z,100.00
2023-04-02T22:51:33.183Z,100.00
2023-04-02T22:54:18.817Z,100.00
2023-04-02T22:57:04.281Z,100.00
2023-04-02T22:59:49.578Z,100.00
2023-04-02T23:02:35.041Z,100.00
2023-04-02T23:05:20.890Z,100.00
2023-04-02T23:08:06.915Z,100.00
2023-04-02T23:10:52.651Z,100.00
2023-04-02T23:13:39.357Z,100.00
2023-04-02T23:16:27.478Z,100.00
2023-04-02T23:19:12.960Z,100.00
2023-04-02T23:21:58.885Z,100.00
2023-04-02T23:24:44.631Z,100.00
2023-04-02T23:27:30.502Z,100.00
2023-04-02T23:30:16.370Z,100.00
2023-04-02T23:33:03.458Z,100.00
2023-04-02T23:35:50.174Z,100.00
2023-04-02T23:38:36.021Z,100.00
2023-04-02T23:41:23.590Z,100.00
2023-04-02T23:44:09.655Z,100.00
2023-04-02T23:46:55.706Z,100.00
2023-04-02T23:49:47.375Z,100.00
2023-04-02T23:52:33.236Z,100.00
2023-04-02T23:55:18.717Z,100.00
2023-04-02T23:58:04.549Z,100.00
